Time;durP1;ratioP1;P1;durP2;ratioP2;P2;SDS_P1;SDS_P2;PMS_P1;PMS_P2;Temp;Humidity;BMP_temperature;BMP_pressure;BME280_temperature;BME280_humidity;BME280_pressure;Samples;Min_cycle;Max_cycle;Signal;HPM_P1;HPM_P2
2022/08/21 00:01:24;;;;;;;11.13;4.05;;;16.30;99.90;;;;;;5028275;28;20034;-59
2022/08/21 00:03:49;;;;;;;12.85;4.20;;;16.20;99.90;;;;;;5042690;28;20064;-58
2022/08/21 00:06:16;;;;;;;6.85;3.92;;;16.20;99.90;;;;;;5028361;28;20072;-59
2022/08/21 00:08:42;;;;;;;9.60;4.13;;;16.20;99.90;;;;;;5046311;28;20037;-59
2022/08/21 00:11:08;;;;;;;8.65;4.13;;;16.20;99.90;;;;;;5028026;28;20033;-60
2022/08/21 00:13:35;;;;;;;11.30;4.45;;;16.20;99.90;;;;;;5046304;28;20037;-59
2022/08/21 00:16:02;;;;;;;7.63;4.35;;;16.10;99.90;;;;;;5028018;28;20030;-59
2022/08/21 00:18:28;;;;;;;7.65;4.30;;;16.10;99.90;;;;;;5029472;28;20025;-60
2022/08/21 00:20:53;;;;;;;6.80;4.05;;;16.10;99.90;;;;;;5043853;28;20067;-59
2022/08/21 00:23:19;;;;;;;6.45;4.50;;;16.10;99.90;;;;;;5028514;28;20041;-59
2022/08/21 00:25:46;;;;;;;9.57;4.40;;;16.10;99.90;;;;;;5038290;28;20037;-59
2022/08/21 00:28:12;;;;;;;7.00;4.25;;;16.10;99.90;;;;;;5028371;28;20394;-59
2022/08/21 00:30:39;;;;;;;8.32;4.50;;;16.20;99.90;;;;;;5026123;28;20491;-59
2022/08/21 00:33:06;;;;;;;7.22;4.05;;;16.10;99.90;;;;;;5028290;28;20034;-59
2022/08/21 00:35:36;;;;;;;7.63;4.25;;;16.00;99.90;;;;;;5027408;28;20037;-60
2022/08/21 00:38:04;;;;;;;8.52;4.57;;;16.00;99.90;;;;;;5032247;28;20021;-59
2022/08/21 00:40:46;;;;;;;6.20;4.22;;;15.90;99.90;;;;;;5025821;28;20175;-61
2022/08/21 00:43:15;;;;;;;5.57;3.85;;;15.90;99.90;;;;;;5032856;28;20622;-59
2022/08/21 00:45:41;;;;;;;7.63;4.47;;;15.90;99.90;;;;;;5026881;28;20117;-58
2022/08/21 00:48:07;;;;;;;8.32;4.40;;;15.80;99.90;;;;;;5044620;28;20416;-60
2022/08/21 00:50:44;;;;;;;6.97;4.45;;;15.80;99.90;;;;;;5030634;28;20053;-60
2022/08/21 00:53:11;;;;;;;11.15;4.60;;;15.80;99.90;;;;;;5031259;28;20048;-59
2022/08/21 00:55:37;;;;;;;7.85;4.22;;;15.70;99.90;;;;;;5029967;28;20039;-59
2022/08/21 00:58:07;;;;;;;13.48;4.65;;;15.70;99.90;;;;;;5032017;28;20033;-59
2022/08/21 01:00:38;;;;;;;5.22;4.05;;;15.70;99.90;;;;;;5031606;28;20076;-61
2022/08/21 01:03:08;;;;;;;8.18;4.40;;;15.70;99.90;;;;;;5052370;28;20087;-59
2022/08/21 01:05:34;;;;;;;6.45;3.72;;;15.70;99.90;;;;;;5031951;28;20063;-61
2022/08/21 01:08:00;;;;;;;5.80;3.97;;;15.60;99.90;;;;;;5032290;28;20428;-58
2022/08/21 01:10:25;;;;;;;5.20;3.42;;;15.50;99.90;;;;;;5031588;28;21011;-58
2022/08/21 01:12:52;;;;;;;6.15;3.88;;;15.40;99.90;;;;;;5051605;28;20632;-58
2022/08/21 01:15:19;;;;;;;8.18;4.53;;;15.40;99.90;;;;;;5033913;28;20395;-58
2022/08/21 01:17:45;;;;;;;6.97;4.22;;;15.40;99.90;;;;;;5030035;28;20034;-58
2022/08/21 01:20:12;;;;;;;8.48;4.50;;;15.40;99.90;;;;;;5025447;28;20619;-59
2022/08/21 01:22:38;;;;;;;6.70;4.63;;;15.40;99.90;;;;;;5028147;28;20061;-59
2022/08/21 01:25:06;;;;;;;7.78;4.70;;;15.30;99.90;;;;;;5032955;28;20041;-59
2022/08/21 01:27:32;;;;;;;10.38;4.28;;;15.40;99.90;;;;;;5033496;28;20025;-60
2022/08/21 01:30:07;;;;;;;9.68;4.20;;;15.40;99.90;;;;;;5031482;28;20040;-58
2022/08/21 01:32:33;;;;;;;8.35;4.57;;;15.30;99.90;;;;;;5038787;28;20029;-60
2022/08/21 01:34:59;;;;;;;97.15;5.00;;;15.20;99.90;;;;;;5030032;28;20340;-59
2022/08/21 01:37:25;;;;;;;6.47;4.00;;;15.10;99.90;;;;;;5030774;28;20091;-58
2022/08/21 01:39:51;;;;;;;6.78;4.55;;;14.90;99.90;;;;;;5028419;28;21947;-58
2022/08/21 01:42:17;;;;;;;7.03;4.57;;;14.80;99.90;;;;;;5031626;28;20017;-59
2022/08/21 01:44:43;;;;;;;7.85;4.78;;;14.80;99.90;;;;;;5028244;28;20128;-59
2022/08/21 01:47:11;;;;;;;7.82;4.78;;;14.70;99.90;;;;;;5030047;28;20096;-58
2022/08/21 01:49:39;;;;;;;9.32;4.38;;;14.70;99.90;;;;;;5026101;28;20025;-60
2022/08/21 01:52:05;;;;;;;7.18;4.82;;;14.80;99.90;;;;;;5016395;28;20424;-59
2022/08/21 01:54:32;;;;;;;10.77;4.50;;;14.80;99.90;;;;;;5025437;28;20076;-60
2022/08/21 01:56:58;;;;;;;7.22;4.30;;;14.80;99.90;;;;;;5028835;28;20108;-59
2022/08/21 01:59:25;;;;;;;8.02;4.00;;;14.90;99.90;;;;;;5029337;28;20033;-59
2022/08/21 02:01:52;;;;;;;7.75;4.30;;;14.90;99.90;;;;;;5029985;28;20040;-58
2022/08/21 02:04:17;;;;;;;6.82;3.60;;;14.90;99.90;;;;;;5028859;28;20068;-58
2022/08/21 02:06:43;;;;;;;6.88;4.25;;;14.80;99.90;;;;;;5029295;28;20508;-59
2022/08/21 02:09:11;;;;;;;7.30;4.30;;;14.80;99.90;;;;;;5033854;28;20044;-59
2022/08/21 02:11:40;;;;;;;6.22;4.10;;;14.90;99.90;;;;;;5030597;28;20045;-61
2022/08/21 02:14:09;;;;;;;11.23;4.40;;;14.80;99.90;;;;;;5030174;28;20094;-58
2022/08/21 02:16:35;;;;;;;9.50;4.47;;;14.80;99.90;;;;;;5029923;28;20375;-61
2022/08/21 02:19:01;;;;;;;8.48;4.38;;;14.80;99.90;;;;;;5028826;28;20025;-59
2022/08/21 02:21:26;;;;;;;9.45;4.35;;;14.80;99.90;;;;;;5030996;28;20037;-58
2022/08/21 02:23:52;;;;;;;7.40;4.13;;;14.80;99.90;;;;;;5042225;28;20033;-58
2022/08/21 02:26:18;;;;;;;10.00;4.13;;;14.80;99.90;;;;;;5030780;28;20365;-58
2022/08/21 02:28:43;;;;;;;10.48;5.22;;;14.80;99.90;;;;;;5026829;28;20444;-59
2022/08/21 02:31:10;;;;;;;8.93;4.72;;;14.90;99.90;;;;;;5025251;28;20458;-59
2022/08/21 02:33:35;;;;;;;7.47;4.30;;;14.80;99.90;;;;;;5026527;28;20026;-59
2022/08/21 02:36:03;;;;;;;9.05;5.05;;;14.80;99.90;;;;;;5028614;28;20025;-58
2022/08/21 02:38:33;;;;;;;7.18;5.00;;;14.80;99.90;;;;;;5027429;28;20482;-59
2022/08/21 02:40:59;;;;;;;6.97;3.92;;;14.70;99.90;;;;;;5048280;28;20605;-58
2022/08/21 02:43:27;;;;;;;8.60;4.75;;;14.60;99.90;;;;;;5032951;28;20050;-58
2022/08/21 02:45:54;;;;;;;6.22;4.25;;;14.60;99.90;;;;;;5029264;28;20045;-59
2022/08/21 02:48:23;;;;;;;7.13;4.88;;;14.50;99.90;;;;;;5027349;28;20125;-58
2022/08/21 02:51:00;;;;;;;6.75;4.30;;;14.60;99.90;;;;;;5028015;28;20074;-59
2022/08/21 02:53:27;;;;;;;7.10;4.60;;;14.60;99.90;;;;;;5027870;28;20037;-59
2022/08/21 02:55:54;;;;;;;13.50;4.35;;;14.60;99.90;;;;;;5029437;28;20476;-60
2022/08/21 02:58:26;;;;;;;8.52;4.15;;;14.60;99.90;;;;;;5027649;28;20152;-58
2022/08/21 03:00:53;;;;;;;5.28;3.95;;;14.50;99.90;;;;;;5028590;28;20025;-58
2022/08/21 03:03:20;;;;;;;6.68;4.25;;;14.40;99.90;;;;;;5028266;28;20186;-58
2022/08/21 03:05:46;;;;;;;13.57;4.40;;;14.30;99.90;;;;;;5031323;28;20120;-58
2022/08/21 03:08:14;;;;;;;8.30;4.78;;;14.30;99.90;;;;;;5045962;28;21065;-58
2022/08/21 03:10:46;;;;;;;9.20;4.60;;;14.40;99.90;;;;;;5028401;28;20403;-60
2022/08/21 03:13:13;;;;;;;7.55;4.30;;;14.40;99.90;;;;;;5026025;28;20424;-60
2022/08/21 03:15:40;;;;;;;7.00;4.50;;;14.50;99.90;;;;;;5029134;28;20068;-60
2022/08/21 03:18:06;;;;;;;7.53;4.50;;;14.50;99.90;;;;;;5040564;28;20532;-59
2022/08/21 03:20:35;;;;;;;8.80;4.70;;;14.50;99.90;;;;;;5029503;28;20022;-58
2022/08/21 03:23:03;;;;;;;7.05;4.15;;;14.50;99.90;;;;;;5032659;28;20086;-60
2022/08/21 03:25:31;;;;;;;5.53;3.28;;;14.50;99.90;;;;;;5029369;28;20076;-58
2022/08/21 03:27:58;;;;;;;6.28;4.05;;;14.30;99.90;;;;;;5027052;28;20060;-59
2022/08/21 03:30:24;;;;;;;9.73;3.80;;;14.20;99.90;;;;;;5028505;28;20029;-59
2022/08/21 03:32:50;;;;;;;9.75;3.97;;;14.20;99.90;;;;;;5036626;28;20037;-59
2022/08/21 03:35:17;;;;;;;4.57;3.40;;;14.10;99.90;;;;;;5028485;28;20025;-59
2022/08/21 03:37:43;;;;;;;5.22;3.88;;;14.10;99.90;;;;;;5043878;28;20495;-60
2022/08/21 03:40:11;;;;;;;8.40;4.40;;;14.00;99.90;;;;;;5032546;28;20033;-58
2022/08/21 03:42:37;;;;;;;9.35;4.82;;;14.00;99.90;;;;;;5044184;28;20043;-58
2022/08/21 03:45:04;;;;;;;9.93;4.35;;;13.90;99.90;;;;;;5036963;28;20171;-58
2022/08/21 03:47:29;;;;;;;9.63;5.03;;;13.80;99.90;;;;;;5046789;28;20065;-59
2022/08/21 03:49:55;;;;;;;8.23;4.57;;;13.80;99.90;;;;;;5028896;28;20025;-58
2022/08/21 03:52:21;;;;;;;8.35;4.82;;;13.80;99.90;;;;;;5038235;28;20037;-58
2022/08/21 03:54:47;;;;;;;10.65;4.95;;;13.80;99.90;;;;;;5030136;28;20038;-59
2022/08/21 03:57:13;;;;;;;7.68;5.07;;;13.80;99.90;;;;;;5036976;28;20364;-59
2022/08/21 03:59:39;;;;;;;9.98;5.28;;;13.80;99.90;;;;;;5027383;28;20440;-58
2022/08/21 04:02:06;;;;;;;12.55;5.43;;;13.90;99.90;;;;;;5026947;28;20120;-60
2022/08/21 04:04:33;;;;;;;8.93;5.60;;;13.90;99.90;;;;;;5026618;28;20124;-58
2022/08/21 04:06:59;;;;;;;9.30;4.28;;;13.90;99.90;;;;;;5028699;28;20499;-58
2022/08/21 04:09:26;;;;;;;6.28;3.97;;;13.80;99.90;;;;;;5027701;28;20111;-59
2022/08/21 04:11:52;;;;;;;6.75;4.40;;;13.70;99.90;;;;;;5027402;28;20068;-59
2022/08/21 04:14:18;;;;;;;7.68;4.65;;;13.60;99.90;;;;;;5035534;28;20048;-58
2022/08/21 04:16:44;;;;;;;6.72;4.47;;;13.60;99.90;;;;;;5027400;28;20041;-60
2022/08/21 04:19:11;;;;;;;9.27;5.00;;;13.60;99.90;;;;;;5026006;28;20136;-58
2022/08/21 04:21:37;;;;;;;9.55;4.60;;;13.60;99.90;;;;;;5028560;28;20049;-59
2022/08/21 04:24:04;;;;;;;7.35;4.40;;;13.60;99.90;;;;;;5038653;28;20045;-59
2022/08/21 04:26:30;;;;;;;7.40;4.28;;;13.60;99.90;;;;;;5043136;28;20033;-58
2022/08/21 04:28:57;;;;;;;6.93;4.10;;;13.50;99.90;;;;;;5031221;28;20774;-58
2022/08/21 04:31:24;;;;;;;7.25;4.60;;;13.40;99.90;;;;;;5031300;28;20033;-59
2022/08/21 04:33:50;;;;;;;7.20;4.22;;;13.50;99.90;;;;;;5038838;28;20079;-58
2022/08/21 04:36:16;;;;;;;6.63;4.65;;;13.40;99.90;;;;;;5039522;28;20041;-59
2022/08/21 04:38:42;;;;;;;7.15;4.47;;;13.40;99.90;;;;;;5031909;28;20057;-59
2022/08/21 04:41:08;;;;;;;5.53;4.15;;;13.30;99.90;;;;;;5030775;28;20099;-59
2022/08/21 04:43:33;;;;;;;6.88;3.70;;;13.20;99.90;;;;;;5033986;28;20044;-59
2022/08/21 04:46:00;;;;;;;7.78;3.78;;;13.20;99.90;;;;;;5030832;28;20061;-59
2022/08/21 04:48:26;;;;;;;4.88;3.78;;;13.30;99.90;;;;;;5030786;28;20033;-59
2022/08/21 04:50:56;;;;;;;8.60;3.95;;;13.30;99.90;;;;;;5030850;28;20120;-59
2022/08/21 04:53:39;;;;;;;7.72;4.07;;;13.20;99.90;;;;;;5049704;28;20041;-58
2022/08/21 04:56:11;;;;;;;6.70;4.40;;;13.20;99.90;;;;;;5037525;28;20649;-59
2022/08/21 04:58:38;;;;;;;6.85;4.05;;;13.20;99.90;;;;;;5044926;28;20041;-58
2022/08/21 05:01:06;;;;;;;5.35;3.78;;;13.20;99.90;;;;;;5035442;28;20120;-58
2022/08/21 05:03:34;;;;;;;9.50;3.50;;;13.20;99.90;;;;;;5033446;28;20041;-58
2022/08/21 05:06:00;;;;;;;6.28;4.07;;;13.20;99.90;;;;;;5038137;28;20040;-58
2022/08/21 05:08:27;;;;;;;5.28;3.70;;;13.20;99.90;;;;;;5035967;28;20026;-59
2022/08/21 05:10:54;;;;;;;5.57;3.20;;;13.40;99.90;;;;;;5033869;28;20029;-59
2022/08/21 05:13:19;;;;;;;6.53;4.10;;;13.50;99.90;;;;;;5032806;28;20038;-60
2022/08/21 05:15:45;;;;;;;5.05;3.63;;;13.60;99.90;;;;;;5028766;28;20134;-60
2022/08/21 05:18:11;;;;;;;6.47;4.18;;;13.70;99.90;;;;;;5029012;28;20679;-59
2022/08/21 05:20:37;;;;;;;11.02;4.93;;;13.80;99.90;;;;;;5032184;28;20476;-59
2022/08/21 05:23:14;;;;;;;6.88;5.00;;;14.00;99.90;;;;;;5028885;28;20032;-59
2022/08/21 05:25:41;;;;;;;8.32;4.53;;;14.10;99.90;;;;;;5027363;28;20464;-59
2022/08/21 05:28:07;;;;;;;7.30;5.03;;;14.20;99.90;;;;;;5028333;28;20053;-59
2022/08/21 05:30:33;;;;;;;10.82;4.72;;;14.30;99.90;;;;;;5031799;28;20025;-59
2022/08/21 05:33:01;;;;;;;8.60;5.03;;;14.40;99.90;;;;;;5027578;28;20556;-59
2022/08/21 05:35:28;;;;;;;7.60;4.68;;;14.60;99.90;;;;;;5030247;28;20033;-59
2022/08/21 05:37:55;;;;;;;7.88;4.07;;;14.60;99.90;;;;;;5030431;28;20044;-60
2022/08/21 05:40:21;;;;;;;7.05;4.03;;;14.60;99.90;;;;;;5025645;28;20034;-60
2022/08/21 05:42:47;;;;;;;8.65;4.30;;;14.60;99.90;;;;;;5025585;28;20037;-59
2022/08/21 05:45:12;;;;;;;6.13;4.15;;;14.70;99.90;;;;;;5027863;28;20045;-59
2022/08/21 05:47:39;;;;;;;9.07;4.88;;;14.70;99.90;;;;;;5035795;28;20128;-59
2022/08/21 05:50:05;;;;;;;11.40;4.70;;;14.90;99.90;;;;;;5035920;28;20426;-59
2022/08/21 05:52:31;;;;;;;6.90;4.78;;;15.10;99.90;;;;;;5030215;28;20510;-58
2022/08/21 05:54:56;;;;;;;10.27;4.60;;;15.20;99.90;;;;;;5039208;28;20037;-59
2022/08/21 05:57:25;;;;;;;7.22;4.40;;;15.30;99.90;;;;;;5035197;28;20029;-59
2022/08/21 05:59:51;;;;;;;5.75;3.78;;;15.40;99.90;;;;;;5028293;28;20068;-60
2022/08/21 06:02:18;;;;;;;10.45;4.20;;;15.50;99.90;;;;;;5033284;28;20411;-60
2022/08/21 06:04:44;;;;;;;4.75;3.83;;;15.50;99.90;;;;;;5030153;28;20403;-59
2022/08/21 06:07:10;;;;;;;8.50;4.50;;;15.60;99.90;;;;;;5033180;28;20021;-58
2022/08/21 06:09:37;;;;;;;8.20;4.45;;;15.60;99.90;;;;;;5051155;28;20036;-59
2022/08/21 06:12:11;;;;;;;9.55;5.30;;;15.60;99.90;;;;;;5027505;28;20046;-59
2022/08/21 06:14:38;;;;;;;12.40;4.72;;;15.80;99.90;;;;;;5025847;28;20034;-59
2022/08/21 06:17:05;;;;;;;10.32;5.25;;;15.90;99.90;;;;;;5019370;28;20063;-59
2022/08/21 06:19:31;;;;;;;10.93;5.43;;;16.00;99.90;;;;;;5028876;28;20080;-59
2022/08/21 06:21:57;;;;;;;10.48;5.00;;;16.10;99.90;;;;;;5030082;28;20503;-59
2022/08/21 06:24:23;;;;;;;7.95;4.75;;;16.20;99.90;;;;;;5030280;28;20137;-59
2022/08/21 06:26:49;;;;;;;9.32;4.82;;;16.20;99.90;;;;;;5030160;28;20104;-59
2022/08/21 06:29:16;;;;;;;10.40;5.55;;;16.20;99.90;;;;;;5029726;28;20086;-59
2022/08/21 06:31:42;;;;;;;8.70;5.38;;;16.30;99.90;;;;;;5027270;28;20044;-59
2022/08/21 06:34:08;;;;;;;8.77;5.25;;;16.40;99.90;;;;;;5027641;28;20108;-59
2022/08/21 06:36:34;;;;;;;10.73;5.40;;;16.40;99.90;;;;;;5023991;28;20041;-59
2022/08/21 06:39:00;;;;;;;12.15;5.70;;;16.50;99.90;;;;;;5028501;28;20034;-59
2022/08/21 06:41:26;;;;;;;11.27;5.45;;;16.60;99.90;;;;;;5015825;28;20033;-58
2022/08/21 06:43:52;;;;;;;8.50;5.10;;;16.60;99.90;;;;;;5028619;28;20045;-60
2022/08/21 06:46:18;;;;;;;8.77;5.45;;;16.60;99.90;;;;;;5026647;28;20053;-58
2022/08/21 06:48:43;;;;;;;6.53;5.00;;;16.80;99.90;;;;;;5049114;28;20702;-58
2022/08/21 06:51:09;;;;;;;9.50;5.40;;;16.90;99.90;;;;;;5034444;28;20029;-59
2022/08/21 06:53:35;;;;;;;9.57;5.63;;;17.00;99.90;;;;;;5030476;28;20403;-59
2022/08/21 06:56:01;;;;;;;10.80;4.90;;;17.10;99.90;;;;;;5031144;28;20033;-58
2022/08/21 06:58:27;;;;;;;12.88;5.22;;;17.20;99.90;;;;;;5028565;28;20056;-60
2022/08/21 07:00:53;;;;;;;9.00;4.93;;;17.30;99.90;;;;;;5031466;28;20022;-61
2022/08/21 07:03:27;;;;;;;9.40;4.97;;;17.30;99.90;;;;;;5027846;28;20052;-59
2022/08/21 07:05:53;;;;;;;8.00;4.43;;;17.40;99.90;;;;;;5038283;28;20077;-61
2022/08/21 07:08:19;;;;;;;8.25;4.55;;;17.50;99.90;;;;;;5039922;28;20033;-59
2022/08/21 07:10:46;;;;;;;8.02;5.05;;;17.60;99.90;;;;;;5037081;28;20075;-59
2022/08/21 07:13:12;;;;;;;9.32;5.50;;;17.60;99.90;;;;;;5037191;28;20041;-59
2022/08/21 07:15:38;;;;;;;11.20;5.32;;;17.70;99.90;;;;;;5037525;28;20147;-59
2022/08/21 07:18:04;;;;;;;10.60;5.38;;;17.80;99.90;;;;;;5049039;28;20037;-58
2022/08/21 07:20:30;;;;;;;7.55;4.60;;;17.80;99.90;;;;;;5039299;28;20067;-59
2022/08/21 07:23:04;;;;;;;17.55;5.35;;;17.80;99.90;;;;;;5029378;28;20029;-60
2022/08/21 07:25:31;;;;;;;10.95;5.30;;;17.90;99.90;;;;;;5028262;28;20507;-59
2022/08/21 07:27:56;;;;;;;8.13;4.68;;;17.90;99.90;;;;;;5026321;28;20034;-60
2022/08/21 07:30:23;;;;;;;11.10;5.20;;;18.10;99.90;;;;;;5032767;28;20032;-59
2022/08/21 07:32:52;;;;;;;11.45;4.70;;;18.20;99.90;;;;;;5035742;28;20052;-59
2022/08/21 07:35:19;;;;;;;10.02;5.00;;;18.20;99.90;;;;;;5025352;28;20041;-59
2022/08/21 07:37:45;;;;;;;9.95;4.75;;;18.30;99.90;;;;;;5027610;28;20487;-59
2022/08/21 07:40:11;;;;;;;9.05;4.43;;;18.40;99.90;;;;;;5028462;28;20033;-59
2022/08/21 07:42:41;;;;;;;13.13;5.63;;;18.50;99.90;;;;;;5024541;28;20037;-59
2022/08/21 07:45:07;;;;;;;9.27;5.15;;;18.60;99.90;;;;;;5028773;28;20125;-59
2022/08/21 07:47:33;;;;;;;10.50;5.32;;;18.60;99.90;;;;;;5029557;28;20049;-59
2022/08/21 07:49:59;;;;;;;8.38;4.88;;;18.70;99.90;;;;;;5028752;28;20033;-61
2022/08/21 07:52:24;;;;;;;12.18;5.20;;;18.80;99.90;;;;;;5028543;28;20034;-60
2022/08/21 07:54:50;;;;;;;11.75;5.28;;;18.80;99.90;;;;;;5029626;28;20069;-59
2022/08/21 07:57:16;;;;;;;8.65;5.30;;;18.80;99.90;;;;;;5028350;28;20099;-60
2022/08/21 07:59:42;;;;;;;10.98;5.18;;;19.00;99.90;;;;;;5029517;28;20065;-59
2022/08/21 08:02:07;;;;;;;10.52;5.57;;;19.20;99.90;;;;;;5028540;28;20033;-59
2022/08/21 08:04:33;;;;;;;10.40;5.68;;;19.30;99.90;;;;;;5029339;28;20041;-59
2022/08/21 08:06:59;;;;;;;10.18;5.53;;;19.30;99.90;;;;;;5027186;28;20042;-61
2022/08/21 08:09:24;;;;;;;10.07;5.15;;;19.30;99.90;;;;;;5027897;28;20030;-59
2022/08/21 08:11:51;;;;;;;11.52;5.60;;;19.30;99.90;;;;;;5029431;28;20364;-59
2022/08/21 08:14:16;;;;;;;14.80;6.65;;;19.50;99.90;;;;;;5028559;28;20036;-59
2022/08/21 08:16:42;;;;;;;11.57;6.18;;;19.60;99.90;;;;;;5029223;28;20104;-59
2022/08/21 08:19:08;;;;;;;10.25;5.45;;;19.70;99.90;;;;;;5028571;28;20022;-59
2022/08/21 08:21:34;;;;;;;11.20;6.15;;;19.80;99.90;;;;;;5029198;28;20427;-59
2022/08/21 08:24:00;;;;;;;9.73;5.97;;;20.00;99.90;;;;;;5027804;28;20049;-60
2022/08/21 08:26:26;;;;;;;13.68;6.10;;;20.00;99.90;;;;;;5024918;28;20067;-59
2022/08/21 08:28:51;;;;;;;13.68;6.30;;;20.10;99.90;;;;;;5026112;28;20042;-58
2022/08/21 08:31:17;;;;;;;15.45;6.00;;;20.20;99.90;;;;;;5039472;28;20455;-59
2022/08/21 08:33:43;;;;;;;10.77;6.35;;;20.20;99.90;;;;;;5027696;28;20026;-59
2022/08/21 08:36:14;;;;;;;12.88;6.80;;;20.20;99.90;;;;;;5026598;28;20045;-59
2022/08/21 08:38:39;;;;;;;12.80;6.35;;;20.30;99.90;;;;;;5023535;28;20090;-59
2022/08/21 08:41:21;;;;;;;13.93;6.55;;;20.40;99.90;;;;;;5025255;28;20025;-60
2022/08/21 08:43:52;;;;;;;10.95;6.05;;;20.60;99.90;;;;;;5026636;28;20068;-59
2022/08/21 08:46:34;;;;;;;11.77;6.65;;;20.80;99.90;;;;;;5021199;28;20715;-58
2022/08/21 08:49:15;;;;;;;11.32;6.05;;;20.90;99.90;;;;;;5027315;28;20480;-60
2022/08/21 08:52:06;;;;;;;13.38;7.30;;;21.10;99.90;;;;;;5017419;28;20110;-60
2022/08/21 08:54:40;;;;;;;15.25;6.90;;;21.40;99.90;;;;;;5022695;28;20048;-59
2022/08/21 08:57:14;;;;;;;12.73;6.88;;;21.40;99.90;;;;;;5023846;28;20037;-59
2022/08/21 08:59:54;;;;;;;9.20;5.97;;;21.50;99.90;;;;;;5024569;28;20034;-59
2022/08/21 09:02:23;;;;;;;10.52;6.05;;;21.80;99.90;;;;;;5021505;28;20036;-59
2022/08/21 09:04:50;;;;;;;11.40;6.53;;;21.80;99.90;;;;;;5026941;28;20076;-60
2022/08/21 09:07:34;;;;;;;12.77;6.68;;;22.00;99.90;;;;;;5016122;28;20454;-59
2022/08/21 09:10:28;;;;;;;12.48;6.03;;;22.10;99.90;;;;;;5028293;28;20096;-61
2022/08/21 09:13:16;;;;;;;12.80;7.13;;;22.20;99.90;;;;;;5031935;28;20053;-59
2022/08/21 09:15:51;;;;;;;13.13;7.07;;;22.10;99.90;;;;;;5032283;28;20033;-59
2022/08/21 09:18:35;;;;;;;12.63;6.65;;;22.10;99.90;;;;;;5031722;28;20084;-59
2022/08/21 09:21:11;;;;;;;12.18;6.25;;;22.40;99.90;;;;;;5032028;28;20451;-60
2022/08/21 09:24:04;;;;;;;13.57;6.68;;;22.70;99.90;;;;;;5031122;28;20041;-59
2022/08/21 09:26:50;;;;;;;10.63;5.90;;;22.40;99.90;;;;;;5032210;28;20033;-59
2022/08/21 09:29:20;;;;;;;11.85;6.30;;;22.40;99.90;;;;;;5031383;28;20099;-60
2022/08/21 09:31:46;;;;;;;10.43;6.68;;;22.40;99.90;;;;;;5032100;28;20091;-59
2022/08/21 09:34:13;;;;;;;13.32;6.35;;;22.50;99.90;;;;;;5046522;28;20033;-59
2022/08/21 09:36:49;;;;;;;12.52;6.47;;;22.50;99.90;;;;;;5031937;28;20025;-58
2022/08/21 09:39:23;;;;;;;8.95;5.43;;;22.80;99.90;;;;;;5031114;28;20039;-59
2022/08/21 09:41:59;;;;;;;13.43;6.07;;;23.00;99.90;;;;;;5031934;28;20030;-59
2022/08/21 09:44:32;;;;;;;9.68;6.00;;;23.30;99.90;;;;;;5030691;28;20875;-59
2022/08/21 09:46:58;;;;;;;9.52;5.82;;;23.40;99.90;;;;;;5031379;28;20052;-59
2022/08/21 09:49:34;;;;;;;14.82;5.97;;;23.50;99.90;;;;;;5030811;28;20025;-59
2022/08/21 09:52:03;;;;;;;11.65;5.70;;;23.80;99.90;;;;;;5030630;28;20033;-60
2022/08/21 09:54:33;;;;;;;9.13;5.57;;;23.90;99.90;;;;;;5029487;28;20061;-59
2022/08/21 09:59:49;;;;;;;9.57;5.53;;;23.20;99.90;;;;;;5031410;28;20614;-59
2022/08/21 10:02:28;;;;;;;10.00;5.13;;;23.40;99.90;;;;;;5031043;28;20034;-60
2022/08/21 10:04:57;;;;;;;19.10;5.70;;;23.70;99.90;;;;;;5031459;28;20083;-59
2022/08/21 10:07:25;;;;;;;10.02;5.95;;;23.80;99.90;;;;;;5030613;28;20061;-59
2022/08/21 10:10:13;;;;;;;11.13;5.65;;;23.60;99.90;;;;;;5031421;28;20029;-60
2022/08/21 10:12:44;;;;;;;13.07;5.80;;;23.60;99.90;;;;;;5029851;28;20030;-59
2022/08/21 10:15:22;;;;;;;10.38;5.95;;;23.70;99.90;;;;;;5029098;28;20603;-59
2022/08/21 10:18:02;;;;;;;12.23;5.38;;;23.70;99.90;;;;;;5030927;28;20036;-59
2022/08/21 10:20:40;;;;;;;18.90;5.90;;;23.90;99.90;;;;;;5030248;28;20056;-59
2022/08/21 10:23:35;;;;;;;9.20;5.50;;;24.20;99.90;;;;;;5030762;28;20352;-61
2022/08/21 10:26:15;;;;;;;11.48;5.85;;;24.30;99.90;;;;;;5031128;28;20029;-59
2022/08/21 10:29:03;;;;;;;10.77;5.07;;;24.50;99.90;;;;;;5030100;28;20038;-59
2022/08/21 10:31:47;;;;;;;8.00;4.65;;;24.70;99.90;;;;;;5030166;28;20056;-59
2022/08/21 10:34:30;;;;;;;13.63;6.15;;;24.80;99.90;;;;;;5030202;28;20109;-59
2022/08/21 10:37:07;;;;;;;12.93;5.70;;;24.80;99.90;;;;;;5030883;28;20033;-59
2022/08/21 10:39:36;;;;;;;12.25;5.82;;;25.10;99.90;;;;;;5045861;28;20028;-59
2022/08/21 10:42:08;;;;;;;8.57;4.90;;;25.20;99.90;;;;;;5031521;28;20029;-59
2022/08/21 10:45:11;;;;;;;12.32;4.88;;;25.50;97.70;;;;;;5030656;28;20029;-59
2022/08/21 10:48:02;;;;;;;9.75;4.85;;;25.60;96.10;;;;;;5016743;28;20480;-59
2022/08/21 10:50:34;;;;;;;8.55;4.65;;;25.40;94.90;;;;;;5029821;28;20207;-60
2022/08/21 10:53:54;;;;;;;8.75;5.07;;;25.50;95.70;;;;;;5029322;28;20041;-59
2022/08/21 10:56:35;;;;;;;9.35;4.18;;;25.70;96.00;;;;;;5006905;28;20519;-59
2022/08/21 10:59:19;;;;;;;7.10;4.57;;;25.80;97.90;;;;;;5027917;28;20055;-59
2022/08/21 11:02:08;;;;;;;17.38;4.43;;;26.00;94.80;;;;;;5028597;28;20380;-59
2022/08/21 11:04:40;;;;;;;8.23;4.38;;;26.20;92.70;;;;;;5030079;28;20052;-59
2022/08/21 11:07:18;;;;;;;10.02;4.93;;;25.80;94.60;;;;;;5030226;28;20025;-60
2022/08/21 11:09:47;;;;;;;8.10;4.80;;;26.00;93.00;;;;;;5030226;28;20030;-59
2022/08/21 11:12:39;;;;;;;10.10;4.68;;;25.90;92.60;;;;;;5029327;28;20026;-59
2022/08/21 11:15:19;;;;;;;6.00;3.70;;;25.60;91.10;;;;;;5030119;28;20037;-59
2022/08/21 11:17:55;;;;;;;6.47;3.95;;;25.80;91.10;;;;;;5028098;28;20037;-59
2022/08/21 11:20:42;;;;;;;7.70;3.88;;;26.10;90.60;;;;;;5044616;28;20373;-59
2022/08/21 11:23:40;;;;;;;7.38;3.85;;;26.50;90.90;;;;;;5029785;28;20036;-60
2022/08/21 11:26:13;;;;;;;8.63;4.10;;;26.60;83.10;;;;;;5029916;28;20041;-59
2022/08/21 11:28:50;;;;;;;9.02;4.07;;;26.90;90.30;;;;;;5030190;28;20053;-58
2022/08/21 11:32:01;;;;;;;9.23;4.15;;;27.00;86.60;;;;;;5028463;28;20029;-59
2022/08/21 11:35:09;;;;;;;10.45;4.60;;;26.80;79.90;;;;;;5026695;28;20054;-59
2022/08/21 11:37:53;;;;;;;13.65;4.25;;;26.80;83.00;;;;;;5016632;28;20048;-59
2022/08/21 11:40:36;;;;;;;6.32;4.13;;;26.30;80.50;;;;;;5028888;28;20091;-59
2022/08/21 11:43:14;;;;;;;7.43;3.85;;;25.90;80.50;;;;;;5029644;28;20025;-59
2022/08/21 11:45:49;;;;;;;9.38;4.40;;;25.20;81.40;;;;;;5029497;28;20088;-59
2022/08/21 11:48:18;;;;;;;6.88;3.90;;;25.10;88.40;;;;;;5027629;28;20025;-59
2022/08/21 11:50:45;;;;;;;8.15;4.20;;;25.40;82.50;;;;;;5029261;28;20391;-59
2022/08/21 11:53:22;;;;;;;6.97;3.80;;;25.90;85.40;;;;;;5029078;28;20039;-61
2022/08/21 11:55:57;;;;;;;8.80;3.95;;;26.40;82.60;;;;;;5029313;28;20034;-59
2022/08/21 11:58:25;;;;;;;7.72;3.70;;;26.80;76.90;;;;;;5028369;28;20114;-59
2022/08/21 12:00:56;;;;;;;8.18;3.63;;;26.50;79.00;;;;;;5029392;28;20041;-59
2022/08/21 12:03:31;;;;;;;7.28;3.67;;;25.90;77.00;;;;;;5028365;28;20040;-59
2022/08/21 12:06:05;;;;;;;12.45;4.00;;;25.60;78.40;;;;;;5044636;28;20064;-60
2022/08/21 12:08:35;;;;;;;7.90;4.28;;;25.70;81.50;;;;;;5028542;28;20034;-59
2022/08/21 12:11:06;;;;;;;11.88;3.92;;;26.00;85.60;;;;;;5029111;28;20052;-59
2022/08/21 12:13:36;;;;;;;10.80;4.43;;;26.00;78.30;;;;;;5028436;28;20121;-59
2022/08/21 12:16:31;;;;;;;10.00;4.63;;;25.20;79.00;;;;;;5028377;28;20030;-58
2022/08/21 12:19:10;;;;;;;7.22;4.00;;;24.70;81.90;;;;;;5028136;28;20091;-59
2022/08/21 12:22:05;;;;;;;8.52;4.03;;;24.30;84.30;;;;;;5028300;28;20480;-59
2022/08/21 12:24:50;;;;;;;9.25;3.80;;;24.10;83.50;;;;;;5043614;28;20546;-59
2022/08/21 12:27:48;;;;;;;10.43;3.97;;;24.10;87.70;;;;;;5028476;28;20041;-59
2022/08/21 12:30:43;;;;;;;8.48;4.00;;;24.20;86.90;;;;;;5028047;28;20048;-61
2022/08/21 12:33:31;;;;;;;8.40;3.92;;;24.80;83.00;;;;;;5028247;28;20488;-59
2022/08/21 12:36:10;;;;;;;12.52;5.10;;;25.60;85.40;;;;;;5029318;28;20468;-59
2022/08/21 12:39:12;;;;;;;7.70;4.35;;;26.20;86.40;;;;;;5028205;28;20021;-59
2022/08/21 12:41:46;;;;;;;7.95;4.03;;;26.50;81.90;;;;;;5043818;28;20040;-59
2022/08/21 12:44:23;;;;;;;8.88;3.60;;;26.20;79.00;;;;;;5030016;28;20396;-60
2022/08/21 12:47:24;;;;;;;8.85;3.70;;;25.60;83.00;;;;;;5031433;28;20053;-58
2022/08/21 12:50:00;;;;;;;17.52;3.67;;;25.90;77.20;;;;;;5032856;28;20116;-59
2022/08/21 12:52:59;;;;;;;9.27;3.88;;;26.20;74.50;;;;;;5031962;28;20033;-60
2022/08/21 12:55:31;;;;;;;5.63;3.38;;;26.70;77.20;;;;;;5031831;28;20033;-59
2022/08/21 12:57:57;;;;;;;11.00;3.58;;;26.80;72.60;;;;;;5032239;28;20063;-60
2022/08/21 13:00:25;;;;;;;10.55;3.42;;;27.10;75.50;;;;;;5029757;28;20109;-59
2022/08/21 13:02:53;;;;;;;8.70;3.70;;;27.10;71.50;;;;;;5032529;28;20136;-59
2022/08/21 13:05:24;;;;;;;12.10;3.95;;;27.10;72.80;;;;;;5031700;28;20461;-59